sensor_id;sensor_type;location;lat;lon;timestamp;P1;durP1;ratioP1;P2;durP2;ratioP2
2620;SDS011;1320;48.128;11.592;2023-04-07T00:00:18;10.40;;;6.40;;
2620;SDS011;1320;48.128;11.592;2023-04-07T00:02:43;9.50;;;6.20;;
2620;SDS011;1320;48.128;11.592;2023-04-07T00:05:09;12.23;;;6.70;;
2620;SDS011;1320;48.128;11.592;2023-04-07T00:07:35;7.83;;;5.83;;
2620;SDS011;1320;48.128;11.592;2023-04-07T00:10:00;9.27;;;6.17;;
2620;SDS011;1320;48.128;11.592;2023-04-07T00:12:26;12.63;;;6.53;;
2620;SDS011;1320;48.128;11.592;2023-04-07T00:14:51;8.67;;;6.37;;
2620;SDS011;1320;48.128;11.592;2023-04-07T00:17:17;8.90;;;6.43;;
2620;SDS011;1320;48.128;11.592;2023-04-07T00:19:43;7.70;;;6.20;;
2620;SDS011;1320;48.128;11.592;2023-04-07T00:22:08;8.10;;;6.27;;
2620;SDS011;1320;48.128;11.592;2023-04-07T00:24:34;9.03;;;6.83;;
2620;SDS011;1320;48.128;11.592;2023-04-07T00:27:00;8.63;;;5.93;;
2620;SDS011;1320;48.128;11.592;2023-04-07T00:29:26;8.57;;;6.80;;
2620;SDS011;1320;48.128;11.592;2023-04-07T00:31:52;8.50;;;6.17;;
2620;SDS011;1320;48.128;11.592;2023-04-07T00:37:39;7.70;;;6.20;;
2620;SDS011;1320;48.128;11.592;2023-04-07T00:40:05;9.03;;;5.90;;
2620;SDS011;1320;48.128;11.592;2023-04-07T00:42:32;11.27;;;6.13;;
2620;SDS011;1320;48.128;11.592;2023-04-07T00:44:57;9.10;;;5.90;;
2620;SDS011;1320;48.128;11.592;2023-04-07T00:47:23;7.20;;;5.60;;
2620;SDS011;1320;48.128;11.592;2023-04-07T00:49:49;8.93;;;5.93;;
2620;SDS011;1320;48.128;11.592;2023-04-07T00:52:14;8.00;;;6.33;;
2620;SDS011;1320;48.128;11.592;2023-04-07T00:58:02;7.67;;;5.87;;
2620;SDS011;1320;48.128;11.592;2023-04-07T01:00:30;9.13;;;5.63;;
2620;SDS011;1320;48.128;11.592;2023-04-07T01:03:06;8.60;;;6.60;;
2620;SDS011;1320;48.128;11.592;2023-04-07T01:05:45;7.28;;;5.97;;
2620;SDS011;1320;48.128;11.592;2023-04-07T01:08:29;7.40;;;5.20;;
2620;SDS011;1320;48.128;11.592;2023-04-07T01:16:06;10.00;;;5.10;;
2620;SDS011;1320;48.128;11.592;2023-04-07T01:18:36;10.30;;;6.13;;
2620;SDS011;1320;48.128;11.592;2023-04-07T01:21:06;8.00;;;5.73;;
2620;SDS011;1320;48.128;11.592;2023-04-07T01:23:45;7.20;;;5.30;;
2620;SDS011;1320;48.128;11.592;2023-04-07T01:26:26;7.30;;;4.97;;
2620;SDS011;1320;48.128;11.592;2023-04-07T01:29:03;11.02;;;6.05;;
2620;SDS011;1320;48.128;11.592;2023-04-07T01:31:32;9.73;;;5.40;;
2620;SDS011;1320;48.128;11.592;2023-04-07T01:33:59;8.40;;;5.33;;
2620;SDS011;1320;48.128;11.592;2023-04-07T01:36:26;11.00;;;5.23;;
2620;SDS011;1320;48.128;11.592;2023-04-07T01:38:53;7.17;;;4.97;;
2620;SDS011;1320;48.128;11.592;2023-04-07T01:41:19;7.13;;;4.83;;
2620;SDS011;1320;48.128;11.592;2023-04-07T01:43:47;7.77;;;5.67;;
2620;SDS011;1320;48.128;11.592;2023-04-07T01:46:14;9.03;;;4.73;;
2620;SDS011;1320;48.128;11.592;2023-04-07T01:48:40;10.03;;;5.43;;
2620;SDS011;1320;48.128;11.592;2023-04-07T01:51:07;8.93;;;5.97;;
2620;SDS011;1320;48.128;11.592;2023-04-07T01:53:35;7.80;;;5.17;;
2620;SDS011;1320;48.128;11.592;2023-04-07T01:56:02;6.53;;;4.27;;
2620;SDS011;1320;48.128;11.592;2023-04-07T01:58:29;6.00;;;3.80;;
2620;SDS011;1320;48.128;11.592;2023-04-07T02:00:55;10.27;;;5.17;;
2620;SDS011;1320;48.128;11.592;2023-04-07T02:03:30;8.00;;;4.90;;
2620;SDS011;1320;48.128;11.592;2023-04-07T02:06:08;8.20;;;4.00;;
2620;SDS011;1320;48.128;11.592;2023-04-07T02:08:41;7.33;;;4.60;;
2620;SDS011;1320;48.128;11.592;2023-04-07T02:11:12;8.97;;;5.17;;
2620;SDS011;1320;48.128;11.592;2023-04-07T02:13:41;6.60;;;4.37;;
2620;SDS011;1320;48.128;11.592;2023-04-07T02:16:08;7.70;;;4.60;;
2620;SDS011;1320;48.128;11.592;2023-04-07T02:18:34;6.73;;;4.30;;
2620;SDS011;1320;48.128;11.592;2023-04-07T02:21:02;6.83;;;5.00;;
2620;SDS011;1320;48.128;11.592;2023-04-07T02:23:29;7.67;;;4.43;;
2620;SDS011;1320;48.128;11.592;2023-04-07T02:25:56;7.40;;;4.60;;
2620;SDS011;1320;48.128;11.592;2023-04-07T02:28:22;5.40;;;3.80;;
2620;SDS011;1320;48.128;11.592;2023-04-07T02:30:48;7.00;;;4.20;;
2620;SDS011;1320;48.128;11.592;2023-04-07T02:33:13;5.37;;;3.83;;
2620;SDS011;1320;48.128;11.592;2023-04-07T02:35:39;5.97;;;3.47;;
2620;SDS011;1320;48.128;11.592;2023-04-07T02:38:05;8.13;;;4.43;;
2620;SDS011;1320;48.128;11.592;2023-04-07T02:40:30;7.17;;;3.90;;
2620;SDS011;1320;48.128;11.592;2023-04-07T02:42:56;5.67;;;4.13;;
2620;SDS011;1320;48.128;11.592;2023-04-07T02:45:22;7.30;;;4.40;;
2620;SDS011;1320;48.128;11.592;2023-04-07T02:47:48;6.40;;;3.83;;
2620;SDS011;1320;48.128;11.592;2023-04-07T02:50:14;4.57;;;3.60;;
2620;SDS011;1320;48.128;11.592;2023-04-07T02:52:40;5.80;;;4.20;;
2620;SDS011;1320;48.128;11.592;2023-04-07T02:55:05;5.23;;;3.27;;
2620;SDS011;1320;48.128;11.592;2023-04-07T02:57:31;6.50;;;4.10;;
2620;SDS011;1320;48.128;11.592;2023-04-07T02:59:57;6.40;;;4.20;;
2620;SDS011;1320;48.128;11.592;2023-04-07T03:02:23;5.73;;;4.27;;
2620;SDS011;1320;48.128;11.592;2023-04-07T03:04:49;7.93;;;3.93;;
2620;SDS011;1320;48.128;11.592;2023-04-07T03:07:16;5.60;;;3.73;;
2620;SDS011;1320;48.128;11.592;2023-04-07T03:09:42;7.13;;;3.93;;
2620;SDS011;1320;48.128;11.592;2023-04-07T03:12:08;7.13;;;4.33;;
2620;SDS011;1320;48.128;11.592;2023-04-07T03:14:33;6.80;;;4.70;;
2620;SDS011;1320;48.128;11.592;2023-04-07T03:17:00;7.40;;;4.83;;
2620;SDS011;1320;48.128;11.592;2023-04-07T03:19:25;6.73;;;4.30;;
2620;SDS011;1320;48.128;11.592;2023-04-07T03:21:51;9.27;;;4.80;;
2620;SDS011;1320;48.128;11.592;2023-04-07T03:24:17;8.07;;;4.30;;
2620;SDS011;1320;48.128;11.592;2023-04-07T03:26:42;7.07;;;4.80;;
2620;SDS011;1320;48.128;11.592;2023-04-07T03:29:08;7.10;;;4.17;;
2620;SDS011;1320;48.128;11.592;2023-04-07T03:31:33;8.70;;;5.03;;
2620;SDS011;1320;48.128;11.592;2023-04-07T03:34:01;7.90;;;4.63;;
2620;SDS011;1320;48.128;11.592;2023-04-07T03:36:27;6.23;;;4.70;;
2620;SDS011;1320;48.128;11.592;2023-04-07T03:38:53;6.17;;;4.20;;
2620;SDS011;1320;48.128;11.592;2023-04-07T03:41:18;6.80;;;4.60;;
2620;SDS011;1320;48.128;11.592;2023-04-07T03:43:45;6.70;;;4.63;;
2620;SDS011;1320;48.128;11.592;2023-04-07T03:46:10;7.63;;;4.50;;
2620;SDS011;1320;48.128;11.592;2023-04-07T03:48:36;7.47;;;4.30;;
2620;SDS011;1320;48.128;11.592;2023-04-07T03:51:02;5.27;;;4.07;;
2620;SDS011;1320;48.128;11.592;2023-04-07T03:53:27;7.73;;;5.17;;
2620;SDS011;1320;48.128;11.592;2023-04-07T03:55:53;6.30;;;4.60;;
2620;SDS011;1320;48.128;11.592;2023-04-07T03:58:19;10.70;;;5.70;;
2620;SDS011;1320;48.128;11.592;2023-04-07T04:00:45;7.73;;;4.80;;
2620;SDS011;1320;48.128;11.592;2023-04-07T04:03:10;7.27;;;5.20;;
2620;SDS011;1320;48.128;11.592;2023-04-07T04:05:36;7.80;;;5.00;;
2620;SDS011;1320;48.128;11.592;2023-04-07T04:08:02;6.37;;;4.40;;
2620;SDS011;1320;48.128;11.592;2023-04-07T04:10:28;7.50;;;5.30;;
2620;SDS011;1320;48.128;11.592;2023-04-07T04:12:53;6.40;;;4.40;;
2620;SDS011;1320;48.128;11.592;2023-04-07T04:15:19;8.30;;;5.57;;
2620;SDS011;1320;48.128;11.592;2023-04-07T04:17:45;10.87;;;5.13;;
2620;SDS011;1320;48.128;11.592;2023-04-07T04:20:10;7.10;;;4.40;;
2620;SDS011;1320;48.128;11.592;2023-04-07T04:22:36;9.13;;;5.07;;
2620;SDS011;1320;48.128;11.592;2023-04-07T04:25:03;6.50;;;5.20;;
2620;SDS011;1320;48.128;11.592;2023-04-07T04:27:28;6.10;;;5.30;;
2620;SDS011;1320;48.128;11.592;2023-04-07T04:29:54;6.57;;;4.67;;
2620;SDS011;1320;48.128;11.592;2023-04-07T04:32:20;8.47;;;4.67;;
2620;SDS011;1320;48.128;11.592;2023-04-07T04:34:45;9.00;;;5.70;;
2620;SDS011;1320;48.128;11.592;2023-04-07T04:37:11;12.77;;;4.80;;
2620;SDS011;1320;48.128;11.592;2023-04-07T04:39:37;7.80;;;5.27;;
2620;SDS011;1320;48.128;11.592;2023-04-07T04:42:04;7.50;;;5.37;;
2620;SDS011;1320;48.128;11.592;2023-04-07T04:44:30;9.40;;;6.07;;
2620;SDS011;1320;48.128;11.592;2023-04-07T04:46:56;7.37;;;5.43;;
2620;SDS011;1320;48.128;11.592;2023-04-07T04:49:21;8.80;;;6.30;;
2620;SDS011;1320;48.128;11.592;2023-04-07T04:51:47;8.90;;;5.13;;
2620;SDS011;1320;48.128;11.592;2023-04-07T04:54:13;10.00;;;6.60;;
2620;SDS011;1320;48.128;11.592;2023-04-07T04:56:38;7.83;;;5.80;;
2620;SDS011;1320;48.128;11.592;2023-04-07T04:59:04;9.07;;;6.23;;
2620;SDS011;1320;48.128;11.592;2023-04-07T05:01:30;7.93;;;5.27;;
2620;SDS011;1320;48.128;11.592;2023-04-07T05:03:55;9.27;;;6.60;;
2620;SDS011;1320;48.128;11.592;2023-04-07T05:06:21;10.47;;;6.33;;
2620;SDS011;1320;48.128;11.592;2023-04-07T05:08:47;6.70;;;4.93;;
2620;SDS011;1320;48.128;11.592;2023-04-07T05:11:12;7.90;;;6.10;;
2620;SDS011;1320;48.128;11.592;2023-04-07T05:13:38;9.10;;;5.80;;
2620;SDS011;1320;48.128;11.592;2023-04-07T05:16:04;6.77;;;4.80;;
2620;SDS011;1320;48.128;11.592;2023-04-07T05:18:30;8.53;;;5.97;;
2620;SDS011;1320;48.128;11.592;2023-04-07T05:20:56;10.50;;;6.07;;
2620;SDS011;1320;48.128;11.592;2023-04-07T05:23:22;8.13;;;5.30;;
2620;SDS011;1320;48.128;11.592;2023-04-07T05:25:47;8.13;;;6.23;;
2620;SDS011;1320;48.128;11.592;2023-04-07T05:28:13;8.10;;;5.37;;
2620;SDS011;1320;48.128;11.592;2023-04-07T05:30:39;10.10;;;6.93;;
2620;SDS011;1320;48.128;11.592;2023-04-07T05:33:05;11.83;;;6.33;;
2620;SDS011;1320;48.128;11.592;2023-04-07T05:35:30;10.90;;;6.17;;
2620;SDS011;1320;48.128;11.592;2023-04-07T05:37:56;10.13;;;5.63;;
2620;SDS011;1320;48.128;11.592;2023-04-07T05:40:22;9.57;;;6.27;;
2620;SDS011;1320;48.128;11.592;2023-04-07T05:42:48;9.80;;;6.57;;
2620;SDS011;1320;48.128;11.592;2023-04-07T05:45:14;9.73;;;6.33;;
2620;SDS011;1320;48.128;11.592;2023-04-07T05:47:40;7.47;;;5.63;;
2620;SDS011;1320;48.128;11.592;2023-04-07T05:50:06;8.37;;;5.97;;
2620;SDS011;1320;48.128;11.592;2023-04-07T05:52:32;8.80;;;5.97;;
2620;SDS011;1320;48.128;11.592;2023-04-07T05:54:57;11.27;;;5.83;;
2620;SDS011;1320;48.128;11.592;2023-04-07T05:57:23;8.70;;;6.07;;
2620;SDS011;1320;48.128;11.592;2023-04-07T05:59:51;9.10;;;5.63;;
2620;SDS011;1320;48.128;11.592;2023-04-07T06:02:17;11.33;;;6.93;;
2620;SDS011;1320;48.128;11.592;2023-04-07T06:04:42;10.10;;;6.50;;
2620;SDS011;1320;48.128;11.592;2023-04-07T06:07:08;8.30;;;5.43;;
2620;SDS011;1320;48.128;11.592;2023-04-07T06:09:33;7.20;;;5.53;;
2620;SDS011;1320;48.128;11.592;2023-04-07T06:11:59;8.83;;;5.63;;
2620;SDS011;1320;48.128;11.592;2023-04-07T06:14:25;7.93;;;5.93;;
2620;SDS011;1320;48.128;11.592;2023-04-07T06:16:51;7.07;;;5.10;;
2620;SDS011;1320;48.128;11.592;2023-04-07T06:19:17;6.57;;;4.63;;
2620;SDS011;1320;48.128;11.592;2023-04-07T06:21:42;10.60;;;6.00;;
2620;SDS011;1320;48.128;11.592;2023-04-07T06:24:08;6.50;;;5.00;;
2620;SDS011;1320;48.128;11.592;2023-04-07T06:26:34;8.17;;;5.80;;
2620;SDS011;1320;48.128;11.592;2023-04-07T06:29:00;10.70;;;7.00;;
2620;SDS011;1320;48.128;11.592;2023-04-07T06:31:27;8.60;;;6.30;;
2620;SDS011;1320;48.128;11.592;2023-04-07T06:33:52;7.67;;;5.60;;
2620;SDS011;1320;48.128;11.592;2023-04-07T06:36:18;11.27;;;6.20;;
2620;SDS011;1320;48.128;11.592;2023-04-07T06:38:45;10.53;;;5.90;;
2620;SDS011;1320;48.128;11.592;2023-04-07T06:41:11;9.77;;;5.73;;
2620;SDS011;1320;48.128;11.592;2023-04-07T06:43:41;8.87;;;6.10;;
2620;SDS011;1320;48.128;11.592;2023-04-07T06:46:13;8.57;;;6.47;;
2620;SDS011;1320;48.128;11.592;2023-04-07T06:48:39;7.37;;;5.20;;
2620;SDS011;1320;48.128;11.592;2023-04-07T06:51:05;10.73;;;6.47;;
2620;SDS011;1320;48.128;11.592;2023-04-07T06:53:30;9.30;;;6.13;;
2620;SDS011;1320;48.128;11.592;2023-04-07T06:56:02;8.83;;;6.30;;
2620;SDS011;1320;48.128;11.592;2023-04-07T06:58:33;8.63;;;6.13;;
2620;SDS011;1320;48.128;11.592;2023-04-07T07:00:59;7.20;;;5.43;;
2620;SDS011;1320;48.128;11.592;2023-04-07T07:03:25;8.53;;;5.23;;
2620;SDS011;1320;48.128;11.592;2023-04-07T07:05:53;8.80;;;5.60;;
2620;SDS011;1320;48.128;11.592;2023-04-07T07:08:20;8.60;;;5.60;;
2620;SDS011;1320;48.128;11.592;2023-04-07T07:10:46;7.83;;;5.90;;
2620;SDS011;1320;48.128;11.592;2023-04-07T07:13:12;9.50;;;6.20;;
2620;SDS011;1320;48.128;11.592;2023-04-07T07:15:37;8.70;;;5.87;;
2620;SDS011;1320;48.128;11.592;2023-04-07T07:18:03;8.17;;;6.20;;
2620;SDS011;1320;48.128;11.592;2023-04-07T07:20:29;8.30;;;5.80;;
2620;SDS011;1320;48.128;11.592;2023-04-07T07:22:54;14.00;;;7.10;;
2620;SDS011;1320;48.128;11.592;2023-04-07T07:25:20;7.50;;;6.00;;
2620;SDS011;1320;48.128;11.592;2023-04-07T07:27:46;11.00;;;6.30;;
2620;SDS011;1320;48.128;11.592;2023-04-07T07:30:15;7.50;;;5.60;;
2620;SDS011;1320;48.128;11.592;2023-04-07T07:32:41;7.53;;;5.50;;
2620;SDS011;1320;48.128;11.592;2023-04-07T07:35:07;11.20;;;7.00;;
2620;SDS011;1320;48.128;11.592;2023-04-07T07:37:32;8.33;;;6.00;;
2620;SDS011;1320;48.128;11.592;2023-04-07T07:39:58;7.87;;;5.17;;
2620;SDS011;1320;48.128;11.592;2023-04-07T07:42:24;8.23;;;6.47;;
2620;SDS011;1320;48.128;11.592;2023-04-07T07:44:49;9.23;;;5.90;;
2620;SDS011;1320;48.128;11.592;2023-04-07T07:47:15;9.70;;;5.50;;
2620;SDS011;1320;48.128;11.592;2023-04-07T07:49:41;7.20;;;5.80;;
2620;SDS011;1320;48.128;11.592;2023-04-07T07:52:06;7.80;;;6.40;;
2620;SDS011;1320;48.128;11.592;2023-04-07T07:54:32;7.60;;;6.30;;
2620;SDS011;1320;48.128;11.592;2023-04-07T07:56:58;8.57;;;6.20;;
2620;SDS011;1320;48.128;11.592;2023-04-07T07:59:24;8.10;;;5.70;;
2620;SDS011;1320;48.128;11.592;2023-04-07T08:01:49;7.47;;;5.23;;
2620;SDS011;1320;48.128;11.592;2023-04-07T08:07:37;7.53;;;5.57;;
2620;SDS011;1320;48.128;11.592;2023-04-07T08:10:03;9.10;;;5.30;;
2620;SDS011;1320;48.128;11.592;2023-04-07T08:12:29;7.13;;;5.10;;
2620;SDS011;1320;48.128;11.592;2023-04-07T08:14:55;8.80;;;6.70;;
2620;SDS011;1320;48.128;11.592;2023-04-07T08:17:20;10.40;;;6.10;;
2620;SDS011;1320;48.128;11.592;2023-04-07T08:19:46;10.97;;;5.60;;
2620;SDS011;1320;48.128;11.592;2023-04-07T08:22:12;9.70;;;5.77;;
2620;SDS011;1320;48.128;11.592;2023-04-07T08:24:37;9.10;;;5.43;;
2620;SDS011;1320;48.128;11.592;2023-04-07T08:27:03;7.10;;;5.77;;
2620;SDS011;1320;48.128;11.592;2023-04-07T08:29:28;8.07;;;5.70;;
2620;SDS011;1320;48.128;11.592;2023-04-07T08:31:54;6.97;;;5.33;;
2620;SDS011;1320;48.128;11.592;2023-04-07T08:34:20;8.93;;;6.00;;
2620;SDS011;1320;48.128;11.592;2023-04-07T08:36:45;9.37;;;6.10;;
2620;SDS011;1320;48.128;11.592;2023-04-07T08:39:11;9.40;;;6.03;;
2620;SDS011;1320;48.128;11.592;2023-04-07T08:41:39;8.20;;;6.20;;
2620;SDS011;1320;48.128;11.592;2023-04-07T08:44:06;8.90;;;6.07;;
2620;SDS011;1320;48.128;11.592;2023-04-07T08:46:33;8.47;;;5.37;;
2620;SDS011;1320;48.128;11.592;2023-04-07T08:49:02;9.80;;;6.43;;
2620;SDS011;1320;48.128;11.592;2023-04-07T08:51:33;6.60;;;4.80;;
2620;SDS011;1320;48.128;11.592;2023-04-07T08:56:38;8.37;;;6.53;;
2620;SDS011;1320;48.128;11.592;2023-04-07T08:59:14;8.30;;;5.63;;
2620;SDS011;1320;48.128;11.592;2023-04-07T09:01:47;7.93;;;5.80;;
2620;SDS011;1320;48.128;11.592;2023-04-07T09:04:13;10.30;;;5.60;;
2620;SDS011;1320;48.128;11.592;2023-04-07T09:06:39;7.70;;;4.80;;
2620;SDS011;1320;48.128;11.592;2023-04-07T09:09:05;7.90;;;6.30;;
2620;SDS011;1320;48.128;11.592;2023-04-07T09:11:34;7.00;;;6.13;;
2620;SDS011;1320;48.128;11.592;2023-04-07T09:14:01;8.07;;;6.37;;
2620;SDS011;1320;48.128;11.592;2023-04-07T09:16:30;7.63;;;5.47;;
2620;SDS011;1320;48.128;11.592;2023-04-07T09:18:56;8.40;;;5.97;;
2620;SDS011;1320;48.128;11.592;2023-04-07T09:21:22;9.80;;;6.47;;
2620;SDS011;1320;48.128;11.592;2023-04-07T09:23:48;7.47;;;5.40;;
2620;SDS011;1320;48.128;11.592;2023-04-07T09:34:22;6.70;;;5.70;;
2620;SDS011;1320;48.128;11.592;2023-04-07T09:36:52;11.63;;;7.50;;
2620;SDS011;1320;48.128;11.592;2023-04-07T09:39:18;8.17;;;6.20;;
2620;SDS011;1320;48.128;11.592;2023-04-07T09:41:44;7.03;;;5.87;;
2620;SDS011;1320;48.128;11.592;2023-04-07T09:44:10;6.53;;;5.83;;
2620;SDS011;1320;48.128;11.592;2023-04-07T09:46:46;7.27;;;5.53;;
2620;SDS011;1320;48.128;11.592;2023-04-07T09:49:16;6.90;;;6.03;;
2620;SDS011;1320;48.128;11.592;2023-04-07T09:52:02;7.43;;;6.17;;
2620;SDS011;1320;48.128;11.592;2023-04-07T09:54:32;7.80;;;6.07;;
2620;SDS011;1320;48.128;11.592;2023-04-07T09:57:00;6.57;;;5.70;;
2620;SDS011;1320;48.128;11.592;2023-04-07T09:59:28;7.77;;;5.63;;
2620;SDS011;1320;48.128;11.592;2023-04-07T10:01:54;6.77;;;5.47;;
2620;SDS011;1320;48.128;11.592;2023-04-07T10:04:20;9.53;;;5.47;;
2620;SDS011;1320;48.128;11.592;2023-04-07T10:06:46;7.20;;;5.33;;
2620;SDS011;1320;48.128;11.592;2023-04-07T10:09:13;6.30;;;4.90;;
2620;SDS011;1320;48.128;11.592;2023-04-07T10:11:39;6.77;;;5.50;;
2620;SDS011;1320;48.128;11.592;2023-04-07T10:14:06;8.73;;;6.43;;
2620;SDS011;1320;48.128;11.592;2023-04-07T10:16:34;8.90;;;5.50;;
2620;SDS011;1320;48.128;11.592;2023-04-07T10:19:01;8.63;;;5.50;;
2620;SDS011;1320;48.128;11.592;2023-04-07T10:21:27;6.97;;;5.67;;
2620;SDS011;1320;48.128;11.592;2023-04-07T10:23:58;6.80;;;5.70;;
2620;SDS011;1320;48.128;11.592;2023-04-07T10:26:33;7.30;;;6.30;;
2620;SDS011;1320;48.128;11.592;2023-04-07T10:29:05;6.13;;;5.53;;
2620;SDS011;1320;48.128;11.592;2023-04-07T10:31:36;7.60;;;5.10;;
2620;SDS011;1320;48.128;11.592;2023-04-07T10:34:02;7.60;;;6.70;;
2620;SDS011;1320;48.128;11.592;2023-04-07T10:36:30;7.63;;;6.10;;
2620;SDS011;1320;48.128;11.592;2023-04-07T10:41:37;8.30;;;5.83;;
2620;SDS011;1320;48.128;11.592;2023-04-07T10:44:05;8.53;;;6.27;;
2620;SDS011;1320;48.128;11.592;2023-04-07T10:49:09;6.13;;;5.00;;
2620;SDS011;1320;48.128;11.592;2023-04-07T10:51:37;6.87;;;5.77;;
2620;SDS011;1320;48.128;11.592;2023-04-07T10:54:16;8.70;;;6.17;;
2620;SDS011;1320;48.128;11.592;2023-04-07T10:59:28;8.67;;;6.37;;
2620;SDS011;1320;48.128;11.592;2023-04-07T11:02:28;10.40;;;6.80;;
2620;SDS011;1320;48.128;11.592;2023-04-07T11:04:48;7.67;;;5.70;;
2620;SDS011;1320;48.128;11.592;2023-04-07T11:07:14;6.43;;;5.70;;
2620;SDS011;1320;48.128;11.592;2023-04-07T11:09:40;7.93;;;6.20;;
2620;SDS011;1320;48.128;11.592;2023-04-07T11:12:06;7.07;;;5.53;;
2620;SDS011;1320;48.128;11.592;2023-04-07T11:14:33;6.70;;;6.00;;
2620;SDS011;1320;48.128;11.592;2023-04-07T11:17:01;9.30;;;5.80;;
2620;SDS011;1320;48.128;11.592;2023-04-07T11:19:28;6.53;;;5.80;;
2620;SDS011;1320;48.128;11.592;2023-04-07T11:22:13;7.67;;;6.17;;
2620;SDS011;1320;48.128;11.592;2023-04-07T11:24:39;8.10;;;6.00;;
2620;SDS011;1320;48.128;11.592;2023-04-07T11:27:06;8.60;;;6.37;;
2620;SDS011;1320;48.128;11.592;2023-04-07T11:29:36;6.00;;;5.40;;
2620;SDS011;1320;48.128;11.592;2023-04-07T11:32:02;8.03;;;5.90;;
2620;SDS011;1320;48.128;11.592;2023-04-07T11:34:29;9.20;;;6.53;;
2620;SDS011;1320;48.128;11.592;2023-04-07T11:36:56;7.83;;;6.17;;
2620;SDS011;1320;48.128;11.592;2023-04-07T11:39:24;11.53;;;5.90;;
2620;SDS011;1320;48.128;11.592;2023-04-07T11:41:59;6.67;;;5.53;;
2620;SDS011;1320;48.128;11.592;2023-04-07T11:47:47;9.23;;;6.10;;
2620;SDS011;1320;48.128;11.592;2023-04-07T11:53:37;6.90;;;6.20;;
2620;SDS011;1320;48.128;11.592;2023-04-07T11:56:07;6.27;;;5.33;;
2620;SDS011;1320;48.128;11.592;2023-04-07T11:58:35;9.50;;;5.80;;
2620;SDS011;1320;48.128;11.592;2023-04-07T12:01:02;8.30;;;5.87;;
2620;SDS011;1320;48.128;11.592;2023-04-07T12:03:36;6.60;;;5.90;;
2620;SDS011;1320;48.128;11.592;2023-04-07T12:06:02;7.90;;;5.80;;
2620;SDS011;1320;48.128;11.592;2023-04-07T12:08:38;8.10;;;5.17;;
2620;SDS011;1320;48.128;11.592;2023-04-07T12:11:05;7.10;;;5.60;;
2620;SDS011;1320;48.128;11.592;2023-04-07T12:13:31;7.97;;;5.97;;
2620;SDS011;1320;48.128;11.592;2023-04-07T12:15:58;7.57;;;6.50;;
2620;SDS011;1320;48.128;11.592;2023-04-07T12:18:24;7.90;;;6.10;;
2620;SDS011;1320;48.128;11.592;2023-04-07T12:20:51;6.33;;;5.43;;
2620;SDS011;1320;48.128;11.592;2023-04-07T12:23:16;9.00;;;7.00;;
2620;SDS011;1320;48.128;11.592;2023-04-07T12:25:42;7.53;;;6.30;;
2620;SDS011;1320;48.128;11.592;2023-04-07T12:28:08;8.33;;;7.27;;
2620;SDS011;1320;48.128;11.592;2023-04-07T12:30:33;7.20;;;5.93;;
2620;SDS011;1320;48.128;11.592;2023-04-07T12:32:59;7.87;;;6.43;;
2620;SDS011;1320;48.128;11.592;2023-04-07T12:35:27;9.07;;;7.63;;
2620;SDS011;1320;48.128;11.592;2023-04-07T12:37:53;8.67;;;6.40;;
2620;SDS011;1320;48.128;11.592;2023-04-07T12:40:18;7.77;;;6.97;;
2620;SDS011;1320;48.128;11.592;2023-04-07T12:42:45;8.23;;;6.83;;
2620;SDS011;1320;48.128;11.592;2023-04-07T12:45:10;8.33;;;7.40;;
2620;SDS011;1320;48.128;11.592;2023-04-07T12:47:36;12.30;;;7.23;;
2620;SDS011;1320;48.128;11.592;2023-04-07T12:50:01;10.90;;;7.20;;
2620;SDS011;1320;48.128;11.592;2023-04-07T12:52:27;12.03;;;6.87;;
2620;SDS011;1320;48.128;11.592;2023-04-07T12:54:53;6.57;;;5.97;;
2620;SDS011;1320;48.128;11.592;2023-04-07T12:57:19;9.33;;;7.10;;
2620;SDS011;1320;48.128;11.592;2023-04-07T12:59:44;9.67;;;7.70;;
2620;SDS011;1320;48.128;11.592;2023-04-07T13:02:10;8.80;;;7.10;;
2620;SDS011;1320;48.128;11.592;2023-04-07T13:07:59;8.30;;;6.67;;
2620;SDS011;1320;48.128;11.592;2023-04-07T13:10:25;10.13;;;7.30;;
2620;SDS011;1320;48.128;11.592;2023-04-07T13:12:51;7.77;;;7.00;;
2620;SDS011;1320;48.128;11.592;2023-04-07T13:15:17;10.93;;;7.27;;
2620;SDS011;1320;48.128;11.592;2023-04-07T13:17:43;8.80;;;6.80;;
2620;SDS011;1320;48.128;11.592;2023-04-07T13:20:08;9.60;;;7.10;;
2620;SDS011;1320;48.128;11.592;2023-04-07T13:22:34;8.90;;;7.13;;
2620;SDS011;1320;48.128;11.592;2023-04-07T13:25:00;8.17;;;6.90;;
2620;SDS011;1320;48.128;11.592;2023-04-07T13:27:26;10.70;;;6.97;;
2620;SDS011;1320;48.128;11.592;2023-04-07T13:29:51;9.00;;;6.60;;
2620;SDS011;1320;48.128;11.592;2023-04-07T13:32:17;9.07;;;7.53;;
2620;SDS011;1320;48.128;11.592;2023-04-07T13:38:05;8.97;;;6.33;;
2620;SDS011;1320;48.128;11.592;2023-04-07T13:40:31;9.27;;;6.77;;
2620;SDS011;1320;48.128;11.592;2023-04-07T13:42:56;9.20;;;6.37;;
2620;SDS011;1320;48.128;11.592;2023-04-07T13:45:24;8.13;;;6.83;;
2620;SDS011;1320;48.128;11.592;2023-04-07T13:47:50;9.23;;;7.70;;
2620;SDS011;1320;48.128;11.592;2023-04-07T13:50:15;11.97;;;8.30;;
2620;SDS011;1320;48.128;11.592;2023-04-07T13:52:41;7.23;;;5.60;;
2620;SDS011;1320;48.128;11.592;2023-04-07T13:55:07;9.53;;;7.20;;
2620;SDS011;1320;48.128;11.592;2023-04-07T13:57:33;11.33;;;6.53;;
2620;SDS011;1320;48.128;11.592;2023-04-07T13:59:59;9.13;;;7.10;;
2620;SDS011;1320;48.128;11.592;2023-04-07T14:02:25;7.20;;;6.40;;
2620;SDS011;1320;48.128;11.592;2023-04-07T14:04:53;11.37;;;6.17;;
2620;SDS011;1320;48.128;11.592;2023-04-07T14:07:19;8.30;;;5.97;;
2620;SDS011;1320;48.128;11.592;2023-04-07T14:09:46;8.27;;;6.50;;
2620;SDS011;1320;48.128;11.592;2023-04-07T14:12:12;9.47;;;6.40;;
2620;SDS011;1320;48.128;11.592;2023-04-07T14:14:38;10.60;;;6.23;;
2620;SDS011;1320;48.128;11.592;2023-04-07T14:17:04;8.67;;;5.93;;
2620;SDS011;1320;48.128;11.592;2023-04-07T14:19:30;8.83;;;6.97;;
2620;SDS011;1320;48.128;11.592;2023-04-07T14:21:57;7.20;;;5.87;;
2620;SDS011;1320;48.128;11.592;2023-04-07T14:24:23;8.30;;;5.53;;
2620;SDS011;1320;48.128;11.592;2023-04-07T14:26:49;6.10;;;5.30;;
2620;SDS011;1320;48.128;11.592;2023-04-07T14:29:15;6.90;;;5.10;;
2620;SDS011;1320;48.128;11.592;2023-04-07T14:31:41;6.43;;;5.03;;
2620;SDS011;1320;48.128;11.592;2023-04-07T14:34:06;7.53;;;5.80;;
2620;SDS011;1320;48.128;11.592;2023-04-07T14:36:32;7.20;;;6.50;;
2620;SDS011;1320;48.128;11.592;2023-04-07T14:38:58;6.87;;;5.13;;
2620;SDS011;1320;48.128;11.592;2023-04-07T14:41:25;12.20;;;5.70;;
2620;SDS011;1320;48.128;11.592;2023-04-07T14:43:51;8.20;;;6.13;;
2620;SDS011;1320;48.128;11.592;2023-04-07T14:46:24;7.60;;;5.80;;
2620;SDS011;1320;48.128;11.592;2023-04-07T14:48:52;6.53;;;5.63;;
2620;SDS011;1320;48.128;11.592;2023-04-07T14:51:18;10.10;;;6.37;;
2620;SDS011;1320;48.128;11.592;2023-04-07T14:53:45;6.63;;;4.80;;
2620;SDS011;1320;48.128;11.592;2023-04-07T14:56:16;6.80;;;5.60;;
2620;SDS011;1320;48.128;11.592;2023-04-07T14:58:41;8.20;;;6.00;;
2620;SDS011;1320;48.128;11.592;2023-04-07T15:01:07;7.23;;;5.50;;
2620;SDS011;1320;48.128;11.592;2023-04-07T15:03:33;7.40;;;5.23;;
2620;SDS011;1320;48.128;11.592;2023-04-07T15:05:58;6.23;;;5.13;;
2620;SDS011;1320;48.128;11.592;2023-04-07T15:08:24;5.37;;;4.47;;
2620;SDS011;1320;48.128;11.592;2023-04-07T15:10:50;6.10;;;4.63;;
2620;SDS011;1320;48.128;11.592;2023-04-07T15:13:15;6.37;;;5.20;;
2620;SDS011;1320;48.128;11.592;2023-04-07T15:15:41;8.10;;;5.03;;
2620;SDS011;1320;48.128;11.592;2023-04-07T15:18:07;6.13;;;4.90;;
2620;SDS011;1320;48.128;11.592;2023-04-07T15:20:32;6.40;;;4.80;;
2620;SDS011;1320;48.128;11.592;2023-04-07T15:22:58;6.47;;;5.00;;
2620;SDS011;1320;48.128;11.592;2023-04-07T15:25:26;6.53;;;4.50;;
2620;SDS011;1320;48.128;11.592;2023-04-07T15:27:52;7.60;;;5.20;;
2620;SDS011;1320;48.128;11.592;2023-04-07T15:30:18;5.60;;;4.10;;
2620;SDS011;1320;48.128;11.592;2023-04-07T15:32:57;6.33;;;5.13;;
2620;SDS011;1320;48.128;11.592;2023-04-07T15:35:24;7.23;;;6.00;;
2620;SDS011;1320;48.128;11.592;2023-04-07T15:37:50;7.63;;;6.43;;
2620;SDS011;1320;48.128;11.592;2023-04-07T15:40:16;7.63;;;4.83;;
2620;SDS011;1320;48.128;11.592;2023-04-07T15:42:42;8.47;;;6.30;;
2620;SDS011;1320;48.128;11.592;2023-04-07T15:45:07;7.83;;;5.50;;